createdAt,value
2022-10-28T00:01:04.637Z,3.43
2022-10-28T00:03:31.811Z,3.50
2022-10-28T00:06:13.053Z,3.33
2022-10-28T00:08:40.096Z,3.50
2022-10-28T00:11:18.606Z,3.70
2022-10-28T00:13:45.819Z,4.00
2022-10-28T00:16:14.784Z,3.30
2022-10-28T00:18:42.256Z,3.60
2022-10-28T00:21:12.015Z,4.47
2022-10-28T00:23:39.333Z,4.73
2022-10-28T00:26:17.153Z,4.90
2022-10-28T00:28:46.989Z,4.70
2022-10-28T00:31:16.859Z,5.40
2022-10-28T00:33:43.905Z,4.53
2022-10-28T00:36:12.178Z,5.37
2022-10-28T00:38:39.585Z,5.00
2022-10-28T00:41:06.586Z,4.90
2022-10-28T00:43:44.436Z,5.30
2022-10-28T00:46:19.930Z,4.90
2022-10-28T00:48:51.006Z,4.37
2022-10-28T00:51:19.533Z,3.63
2022-10-28T00:53:48.238Z,4.50
2022-10-28T00:56:16.841Z,4.63
2022-10-28T00:58:44.970Z,3.97
2022-10-28T01:01:11.680Z,4.03
2022-10-28T01:03:38.569Z,3.93
2022-10-28T01:06:06.192Z,5.23
2022-10-28T01:08:33.146Z,5.20
2022-10-28T01:11:03.074Z,4.40
2022-10-28T01:13:38.487Z,4.43
2022-10-28T01:16:25.824Z,5.40
2022-10-28T01:19:04.019Z,4.20
2022-10-28T01:22:02.168Z,4.53
2022-10-28T01:24:50.629Z,3.60
2022-10-28T01:27:23.275Z,4.00
2022-10-28T01:30:04.962Z,3.57
2022-10-28T01:32:40.512Z,4.53
2022-10-28T01:35:48.191Z,4.30
2022-10-28T01:38:36.071Z,5.60
2022-10-28T01:41:11.423Z,5.97
2022-10-28T01:43:44.966Z,6.23
2022-10-28T01:46:26.129Z,5.07
2022-10-28T01:49:00.332Z,5.40
2022-10-28T01:51:32.251Z,6.20
2022-10-28T01:54:02.221Z,5.40
2022-10-28T01:56:33.753Z,5.60
2022-10-28T01:59:01.995Z,4.73
2022-10-28T02:01:30.860Z,4.13
2022-10-28T02:03:58.137Z,5.07
2022-10-28T02:06:30.401Z,5.00
2022-10-28T02:08:57.191Z,4.60
2022-10-28T02:11:42.700Z,4.83
2022-10-28T02:14:27.562Z,3.80
2022-10-28T02:17:19.950Z,4.80
2022-10-28T02:19:53.953Z,3.87
2022-10-28T02:22:32.612Z,4.50
2022-10-28T02:25:13.036Z,3.67
2022-10-28T02:28:06.930Z,3.70
2022-10-28T02:30:49.607Z,4.07
2022-10-28T02:33:23.990Z,3.73
2022-10-28T02:36:00.630Z,4.20
2022-10-28T02:38:38.206Z,3.30
2022-10-28T02:41:29.410Z,3.70
2022-10-28T02:44:00.048Z,3.20
2022-10-28T02:46:30.936Z,3.60
2022-10-28T02:49:02.753Z,3.53
2022-10-28T02:51:35.715Z,3.60
2022-10-28T02:54:10.949Z,3.33
2022-10-28T02:57:03.660Z,4.00
2022-10-28T02:59:30.405Z,3.80
2022-10-28T03:01:57.219Z,2.90
2022-10-28T03:04:24.062Z,4.30
2022-10-28T03:06:50.811Z,4.20
2022-10-28T03:09:17.471Z,3.83
2022-10-28T03:11:44.297Z,3.87
2022-10-28T03:14:13.275Z,4.20
2022-10-28T03:16:42.147Z,4.50
2022-10-28T03:21:35.564Z,4.63
2022-10-28T03:24:02.296Z,4.50
2022-10-28T03:26:28.956Z,3.80
2022-10-28T03:28:55.830Z,3.80
2022-10-28T03:31:22.529Z,4.87
2022-10-28T03:33:49.199Z,5.10
2022-10-28T03:36:15.881Z,4.27
2022-10-28T03:38:42.575Z,4.30
2022-10-28T03:41:09.386Z,4.53
2022-10-28T03:43:36.127Z,3.70
2022-10-28T03:46:02.889Z,4.07
2022-10-28T03:48:29.638Z,3.70
2022-10-28T03:50:57.020Z,3.20
2022-10-28T03:53:27.570Z,3.40
2022-10-28T03:55:57.293Z,3.40
2022-10-28T03:58:24.799Z,3.37
2022-10-28T04:00:53.231Z,3.93
2022-10-28T04:03:21.770Z,4.43
2022-10-28T04:05:49.026Z,3.67
2022-10-28T04:08:16.773Z,3.73
2022-10-28T04:10:47.347Z,3.60
2022-10-28T04:13:15.752Z,3.70
2022-10-28T04:15:42.519Z,3.23
2022-10-28T04:18:09.509Z,3.13
2022-10-28T04:20:36.513Z,3.33
2022-10-28T04:23:03.740Z,3.30
2022-10-28T04:25:30.828Z,3.87
2022-10-28T04:27:57.637Z,3.33
2022-10-28T04:30:24.913Z,4.10
2022-10-28T04:32:51.564Z,3.23
2022-10-28T04:35:18.336Z,3.50
2022-10-28T04:37:45.684Z,3.57
2022-10-28T04:40:12.675Z,3.33
2022-10-28T04:42:39.417Z,3.17
2022-10-28T04:45:06.823Z,3.30
2022-10-28T04:47:33.662Z,2.90
2022-10-28T04:50:00.540Z,3.00
2022-10-28T04:52:27.204Z,3.30
2022-10-28T04:54:53.865Z,2.93
2022-10-28T04:57:20.529Z,2.93
2022-10-28T04:59:47.346Z,3.83
2022-10-28T05:02:14.096Z,3.60
2022-10-28T05:04:40.900Z,3.37
2022-10-28T05:07:07.642Z,3.37
2022-10-28T05:09:34.388Z,3.77
2022-10-28T05:12:01.190Z,2.87
2022-10-28T05:14:27.939Z,3.20
2022-10-28T05:16:54.640Z,9.70
2022-10-28T05:19:21.307Z,7.73
2022-10-28T05:21:47.966Z,7.43
2022-10-28T05:24:14.698Z,5.47
2022-10-28T05:26:41.364Z,4.47
2022-10-28T05:29:08.082Z,4.63
2022-10-28T05:31:34.764Z,7.17
2022-10-28T05:34:01.473Z,15.70
2022-10-28T05:36:28.126Z,7.73
2022-10-28T05:38:54.772Z,7.50
2022-10-28T05:41:23.355Z,7.03
2022-10-28T05:43:51.421Z,5.57
2022-10-28T05:46:18.201Z,5.83
2022-10-28T05:48:44.932Z,5.57
2022-10-28T05:51:11.646Z,5.30
2022-10-28T05:53:38.375Z,4.30
2022-10-28T05:56:05.293Z,5.63
2022-10-28T05:58:32.119Z,5.40
2022-10-28T06:00:59.221Z,4.60
2022-10-28T06:03:30.105Z,4.97
2022-10-28T06:05:58.645Z,4.47
2022-10-28T06:08:25.374Z,5.50
2022-10-28T06:10:52.684Z,5.33
2022-10-28T06:13:19.889Z,5.77
2022-10-28T06:15:50.839Z,5.37
2022-10-28T06:18:18.979Z,4.50
2022-10-28T06:21:11.893Z,5.57
2022-10-28T06:23:38.658Z,4.10
2022-10-28T06:26:05.349Z,4.03
2022-10-28T06:28:32.124Z,4.53
2022-10-28T06:31:03.620Z,4.27
2022-10-28T06:33:34.068Z,4.00
2022-10-28T06:36:01.207Z,4.33
2022-10-28T06:38:28.587Z,6.80
2022-10-28T06:40:58.568Z,5.17
2022-10-28T06:43:25.457Z,5.30
2022-10-28T06:45:55.365Z,5.27
2022-10-28T06:48:24.285Z,5.53
2022-10-28T06:50:51.174Z,5.50
2022-10-28T06:53:17.917Z,4.83
2022-10-28T06:55:48.833Z,20.23
2022-10-28T06:58:15.683Z,16.77
2022-10-28T07:00:42.353Z,15.30
2022-10-28T07:03:10.725Z,8.93
2022-10-28T07:05:37.841Z,5.73
2022-10-28T07:08:05.147Z,5.33
2022-10-28T07:10:31.853Z,4.90
2022-10-28T07:12:58.585Z,6.33
2022-10-28T07:15:25.365Z,5.40
2022-10-28T07:17:56.775Z,5.80
2022-10-28T07:20:24.882Z,4.83
2022-10-28T07:22:58.827Z,5.10
2022-10-28T07:25:26.706Z,4.90
2022-10-28T07:27:53.789Z,6.40
2022-10-28T07:30:20.720Z,5.30
2022-10-28T07:32:47.405Z,6.27
2022-10-28T07:35:14.251Z,6.30
2022-10-28T07:37:40.941Z,7.40
2022-10-28T07:40:08.054Z,6.53
2022-10-28T07:42:35.403Z,6.13
2022-10-28T07:45:02.861Z,7.47
2022-10-28T07:47:29.586Z,5.90
2022-10-28T07:49:56.471Z,6.33
2022-10-28T07:52:23.370Z,7.07
2022-10-28T07:54:51.968Z,6.43
2022-10-28T07:57:18.995Z,6.57
2022-10-28T07:59:45.765Z,7.30
2022-10-28T08:02:21.474Z,6.80
2022-10-28T08:04:48.719Z,7.00
2022-10-28T08:07:16.250Z,7.23
2022-10-28T08:09:42.941Z,6.70
2022-10-28T08:12:12.744Z,7.73
2022-10-28T08:14:39.549Z,7.20
2022-10-28T08:17:06.719Z,7.30
2022-10-28T08:19:33.657Z,8.23
2022-10-28T08:22:00.445Z,9.70
2022-10-28T08:24:27.113Z,8.97
2022-10-28T08:26:54.321Z,8.80
2022-10-28T08:29:21.006Z,6.37
2022-10-28T08:31:47.685Z,5.90
2022-10-28T08:34:14.506Z,7.50
2022-10-28T08:36:41.379Z,8.57
2022-10-28T08:39:08.185Z,7.80
2022-10-28T08:41:46.469Z,8.47
2022-10-28T08:44:22.223Z,8.63
2022-10-28T08:46:57.461Z,7.00
2022-10-28T08:49:24.808Z,6.67
2022-10-28T08:51:59.437Z,8.80
2022-10-28T08:54:50.477Z,8.30
2022-10-28T08:57:42.121Z,8.20
2022-10-28T09:00:21.933Z,8.47
2022-10-28T09:03:16.776Z,7.80
2022-10-28T09:05:50.553Z,7.80
2022-10-28T09:08:25.285Z,7.63
2022-10-28T09:11:10.145Z,6.83
2022-10-28T09:14:16.064Z,6.93
2022-10-28T09:17:07.129Z,7.13
2022-10-28T09:19:42.729Z,5.77
2022-10-28T09:22:20.918Z,8.20
2022-10-28T09:24:54.650Z,7.80
2022-10-28T09:27:21.448Z,7.10
2022-10-28T09:30:12.837Z,5.50
2022-10-28T09:33:01.337Z,5.93
2022-10-28T09:35:33.892Z,6.80
2022-10-28T09:38:14.724Z,7.73
2022-10-28T09:40:46.000Z,5.20
2022-10-28T09:43:35.300Z,5.10
2022-10-28T09:46:12.710Z,6.20
2022-10-28T09:48:46.552Z,7.90
2022-10-28T09:51:30.798Z,8.20
2022-10-28T09:53:59.605Z,6.50
2022-10-28T09:56:28.067Z,6.67
2022-10-28T09:58:58.435Z,6.37
2022-10-28T10:01:25.507Z,7.00
2022-10-28T10:03:52.550Z,7.80
2022-10-28T10:06:27.416Z,8.13
2022-10-28T10:08:57.345Z,7.17
2022-10-28T10:11:45.528Z,6.63
2022-10-28T10:14:16.985Z,5.40
2022-10-28T10:16:51.014Z,6.73
2022-10-28T10:19:17.770Z,5.50
2022-10-28T10:21:47.267Z,4.93
2022-10-28T10:24:34.670Z,5.63
2022-10-28T10:27:17.450Z,6.80
2022-10-28T10:29:47.264Z,6.30
2022-10-28T10:32:18.995Z,6.60
2022-10-28T10:34:58.336Z,6.97
2022-10-28T10:37:26.560Z,6.50
2022-10-28T10:40:04.039Z,5.90
2022-10-28T10:42:30.920Z,5.03
2022-10-28T10:45:10.851Z,5.77
2022-10-28T10:47:37.595Z,7.20
2022-10-28T10:50:23.640Z,5.97
2022-10-28T10:52:53.866Z,5.97
2022-10-28T10:55:38.724Z,6.20
2022-10-28T10:58:14.380Z,6.73
2022-10-28T11:00:47.861Z,5.40
2022-10-28T11:03:24.594Z,6.70
2022-10-28T11:06:18.247Z,7.03
2022-10-28T11:08:44.245Z,6.83
2022-10-28T11:11:22.579Z,6.57
2022-10-28T11:14:03.607Z,6.23
2022-10-28T11:16:30.347Z,6.47
2022-10-28T11:18:57.071Z,5.83
2022-10-28T11:21:43.016Z,6.43
2022-10-28T11:24:31.449Z,5.50
2022-10-28T11:26:58.081Z,5.57
2022-10-28T11:29:25.301Z,5.50
2022-10-28T11:31:57.968Z,5.77
2022-10-28T11:34:46.565Z,5.53
2022-10-28T11:37:34.299Z,5.30
2022-10-28T11:40:22.708Z,6.57
2022-10-28T11:43:04.499Z,5.40
2022-10-28T11:46:29.501Z,5.00
2022-10-28T11:48:59.185Z,5.67
2022-10-28T11:52:13.521Z,5.13
2022-10-28T11:55:19.125Z,5.30
2022-10-28T11:58:06.769Z,5.30
2022-10-28T12:00:45.553Z,6.33
2022-10-28T12:04:01.233Z,4.90
2022-10-28T12:06:54.283Z,4.37
2022-10-28T12:09:53.248Z,4.37
2022-10-28T12:12:48.643Z,5.10
2022-10-28T12:16:10.957Z,5.30
2022-10-28T12:18:56.380Z,5.10
2022-10-28T12:21:36.805Z,5.63
2022-10-28T12:24:09.483Z,6.70
2022-10-28T12:26:41.573Z,6.40
2022-10-28T12:29:37.335Z,6.90
2022-10-28T12:32:11.813Z,5.40
2022-10-28T12:34:45.513Z,5.27
2022-10-28T12:37:21.585Z,6.30
2022-10-28T12:40:04.773Z,4.97
2022-10-28T12:42:40.050Z,5.40
2022-10-28T12:45:11.503Z,4.50
2022-10-28T12:48:13.965Z,6.37
2022-10-28T12:50:56.586Z,5.00
2022-10-28T12:54:15.082Z,5.10
2022-10-28T12:57:04.584Z,4.03
2022-10-28T12:59:39.000Z,3.33
2022-10-28T13:02:21.180Z,3.50
2022-10-28T13:04:48.110Z,3.63
2022-10-28T13:07:38.370Z,3.50
2022-10-28T13:10:31.515Z,3.77
2022-10-28T13:13:12.582Z,3.23
2022-10-28T13:15:40.383Z,2.27
2022-10-28T13:18:31.237Z,2.87
2022-10-28T13:21:29.211Z,3.10
2022-10-28T13:24:10.932Z,2.97
2022-10-28T13:26:43.410Z,3.13
2022-10-28T13:29:32.971Z,2.57
2022-10-28T13:32:00.021Z,2.90
2022-10-28T13:34:44.821Z,2.40
2022-10-28T13:37:20.899Z,2.40
2022-10-28T13:39:47.740Z,2.63
2022-10-28T13:42:23.418Z,2.90
2022-10-28T13:44:57.546Z,2.90
2022-10-28T13:47:28.586Z,3.50
2022-10-28T13:50:07.742Z,2.50
2022-10-28T13:52:43.001Z,3.33
2022-10-28T13:55:42.413Z,2.73
2022-10-28T13:58:22.723Z,3.13
2022-10-28T14:00:52.220Z,5.80
2022-10-28T14:03:24.356Z,2.90
2022-10-28T14:05:53.987Z,5.53
2022-10-28T14:08:41.043Z,4.77
2022-10-28T14:11:10.537Z,3.10
2022-10-28T14:13:47.090Z,3.57
2022-10-28T14:16:22.170Z,2.90
2022-10-28T14:19:20.093Z,3.70
2022-10-28T14:22:00.744Z,2.87
2022-10-28T14:24:38.344Z,3.00
2022-10-28T14:27:15.330Z,2.80
2022-10-28T14:30:04.013Z,2.40
2022-10-28T14:32:33.829Z,3.30
2022-10-28T14:35:15.881Z,2.53
2022-10-28T14:38:07.587Z,3.13
2022-10-28T14:40:47.817Z,3.13
2022-10-28T14:43:34.115Z,3.80
2022-10-28T14:46:42.950Z,2.90
2022-10-28T14:49:25.707Z,2.70
2022-10-28T14:51:53.312Z,3.33
2022-10-28T14:54:39.838Z,3.10
2022-10-28T14:57:08.112Z,3.17
2022-10-28T14:59:43.027Z,3.00
2022-10-28T15:02:25.195Z,3.07
2022-10-28T15:05:13.936Z,2.67
2022-10-28T15:07:41.925Z,3.90
2022-10-28T15:10:29.371Z,3.43
2022-10-28T15:12:58.101Z,2.50
2022-10-28T15:15:28.246Z,2.87
2022-10-28T15:17:55.068Z,3.03
2022-10-28T15:20:27.423Z,3.90
2022-10-28T15:23:11.047Z,3.90
2022-10-28T15:25:37.816Z,3.50
2022-10-28T15:28:04.649Z,3.33
2022-10-28T15:30:31.451Z,2.70
2022-10-28T15:33:19.240Z,3.30
2022-10-28T15:35:47.503Z,2.10
2022-10-28T15:38:25.137Z,2.90
2022-10-28T15:40:51.971Z,4.00
2022-10-28T15:43:27.117Z,2.80
2022-10-28T15:45:54.240Z,3.30
2022-10-28T15:48:24.769Z,2.53
2022-10-28T15:51:15.216Z,3.73
2022-10-28T15:53:43.380Z,4.10
2022-10-28T15:56:24.921Z,3.33
2022-10-28T15:59:21.798Z,3.20
2022-10-28T16:01:48.596Z,3.20
2022-10-28T16:04:18.229Z,3.10
2022-10-28T16:06:46.146Z,3.13
2022-10-28T16:09:20.441Z,2.47
2022-10-28T16:11:53.444Z,3.43
2022-10-28T16:14:39.855Z,5.00
2022-10-28T16:17:13.808Z,3.87
2022-10-28T16:19:46.006Z,3.43
2022-10-28T16:22:14.273Z,3.90
2022-10-28T16:24:41.852Z,4.27
2022-10-28T16:27:18.563Z,3.60
2022-10-28T16:29:45.607Z,3.57
2022-10-28T16:32:13.871Z,4.17
2022-10-28T16:34:40.816Z,3.73
2022-10-28T16:37:34.329Z,3.83
2022-10-28T16:40:01.022Z,4.57
2022-10-28T16:42:27.808Z,4.50
2022-10-28T16:44:54.599Z,4.30
2022-10-28T16:47:22.982Z,3.60
2022-10-28T16:49:54.050Z,4.17
2022-10-28T16:52:29.570Z,4.73
2022-10-28T16:54:57.267Z,4.60
2022-10-28T16:59:51.376Z,5.00
2022-10-28T17:02:38.541Z,4.40
2022-10-28T17:05:07.339Z,4.60
2022-10-28T17:07:34.034Z,4.30
2022-10-28T17:10:00.697Z,4.17
2022-10-28T17:12:27.960Z,4.83
2022-10-28T17:14:55.259Z,4.60
2022-10-28T17:17:22.046Z,3.47
2022-10-28T17:19:48.956Z,4.07
2022-10-28T17:22:15.841Z,3.23
2022-10-28T17:24:42.586Z,3.60
2022-10-28T17:27:09.342Z,4.93
2022-10-28T17:29:36.252Z,4.70
2022-10-28T17:32:03.154Z,4.50
2022-10-28T17:34:29.831Z,4.10
2022-10-28T17:36:56.819Z,4.33
2022-10-28T17:39:26.403Z,4.43
2022-10-28T17:41:53.574Z,4.10
2022-10-28T17:44:20.590Z,4.90
2022-10-28T17:46:51.452Z,5.93
2022-10-28T17:49:18.755Z,3.80
2022-10-28T17:51:45.448Z,4.77
2022-10-28T17:54:12.358Z,3.53
2022-10-28T17:56:41.827Z,3.70
2022-10-28T17:59:08.766Z,3.40
2022-10-28T18:01:35.575Z,3.50
2022-10-28T18:04:06.424Z,3.67
2022-10-28T18:06:33.243Z,3.90
2022-10-28T18:09:00.153Z,4.07
2022-10-28T18:11:27.527Z,4.27
2022-10-28T18:13:56.317Z,3.90
2022-10-28T18:16:25.350Z,3.60
2022-10-28T18:18:53.713Z,3.77
2022-10-28T18:21:21.394Z,4.40
2022-10-28T18:23:52.868Z,3.90
2022-10-28T18:26:20.188Z,5.13
2022-10-28T18:28:47.153Z,3.90
2022-10-28T18:31:19.232Z,3.50
2022-10-28T18:33:46.952Z,4.33
2022-10-28T18:36:22.801Z,4.30
2022-10-28T18:38:50.726Z,4.30
2022-10-28T18:41:19.921Z,4.30
2022-10-28T18:43:46.855Z,5.50
2022-10-28T18:46:14.988Z,6.17
2022-10-28T18:48:41.802Z,8.00
2022-10-28T18:51:11.339Z,7.73
2022-10-28T18:53:40.324Z,5.03
2022-10-28T18:56:09.826Z,5.13
2022-10-28T18:58:36.545Z,5.27
2022-10-28T19:01:12.478Z,4.67
2022-10-28T19:03:39.706Z,5.43
2022-10-28T19:06:09.409Z,6.27
2022-10-28T19:08:36.377Z,6.53
2022-10-28T19:11:03.903Z,6.07
2022-10-28T19:13:35.489Z,6.83
2022-10-28T19:16:02.412Z,6.43
2022-10-28T19:18:29.527Z,6.40
2022-10-28T19:21:08.324Z,5.80
2022-10-28T19:23:35.138Z,6.43
2022-10-28T19:26:03.863Z,6.03
2022-10-28T19:28:35.536Z,6.50
2022-10-28T19:31:04.033Z,6.47
2022-10-28T19:33:31.376Z,6.13
2022-10-28T19:36:03.613Z,6.73
2022-10-28T19:38:35.258Z,6.60
2022-10-28T19:41:13.626Z,7.10
2022-10-28T19:43:40.932Z,6.83
2022-10-28T19:46:10.960Z,6.27
2022-10-28T19:48:39.322Z,6.60
2022-10-28T19:51:06.898Z,7.47
2022-10-28T19:53:33.820Z,7.60
2022-10-28T19:56:02.862Z,7.50
2022-10-28T19:58:30.943Z,6.90
2022-10-28T20:01:03.471Z,7.47
2022-10-28T20:03:34.299Z,6.50
2022-10-28T20:06:07.839Z,7.17
2022-10-28T20:08:46.383Z,6.87
2022-10-28T20:11:15.215Z,6.30
2022-10-28T20:13:42.331Z,5.63
2022-10-28T20:16:14.292Z,5.00
2022-10-28T20:18:41.213Z,4.50
2022-10-28T20:21:16.225Z,4.50
2022-10-28T20:23:44.499Z,4.90
2022-10-28T20:26:12.962Z,4.83
2022-10-28T20:28:40.185Z,4.27
2022-10-28T20:31:08.552Z,3.97
2022-10-28T20:33:37.311Z,3.90
2022-10-28T20:36:04.986Z,5.17
2022-10-28T20:38:31.812Z,4.40
2022-10-28T20:41:00.458Z,3.60
2022-10-28T20:43:29.332Z,4.50
2022-10-28T20:46:01.670Z,4.43
2022-10-28T20:48:30.157Z,4.13
2022-10-28T20:51:01.670Z,3.77
2022-10-28T20:53:32.988Z,4.20
2022-10-28T20:56:00.337Z,4.03
2022-10-28T20:58:33.048Z,3.77
2022-10-28T21:01:05.742Z,3.30
2022-10-28T21:03:32.832Z,3.23
2022-10-28T21:06:01.698Z,3.53
2022-10-28T21:08:28.573Z,4.30
2022-10-28T21:10:55.579Z,4.27
2022-10-28T21:13:22.244Z,4.53
2022-10-28T21:15:53.171Z,3.07
2022-10-28T21:18:23.589Z,3.80
2022-10-28T21:20:58.995Z,4.07
2022-10-28T21:23:27.057Z,4.20
2022-10-28T21:26:05.110Z,4.13
2022-10-28T21:28:33.172Z,4.57
2022-10-28T21:31:13.932Z,3.97
2022-10-28T21:33:42.141Z,3.93
2022-10-28T21:36:17.913Z,3.40
2022-10-28T21:38:45.012Z,3.53
2022-10-28T21:41:19.457Z,3.47
2022-10-28T21:43:48.743Z,3.70
2022-10-28T21:46:19.246Z,4.47
2022-10-28T21:48:46.717Z,5.53
2022-10-28T21:51:15.561Z,4.83
2022-10-28T21:53:43.798Z,3.80
2022-10-28T21:56:18.231Z,3.60
2022-10-28T21:58:46.710Z,3.90
2022-10-28T22:01:22.186Z,4.00
2022-10-28T22:03:49.989Z,4.27
2022-10-28T22:06:17.058Z,6.50
2022-10-28T22:08:43.845Z,6.77
2022-10-28T22:11:19.299Z,5.90
2022-10-28T22:13:47.012Z,4.20
2022-10-28T22:16:15.799Z,5.03
2022-10-28T22:18:43.713Z,3.90
2022-10-28T22:21:13.360Z,3.73
2022-10-28T22:23:40.632Z,3.93
2022-10-28T22:26:10.900Z,3.43
2022-10-28T22:28:38.075Z,3.20
2022-10-28T22:31:07.950Z,3.50
2022-10-28T22:33:35.171Z,4.17
2022-10-28T22:36:04.359Z,4.17
2022-10-28T22:38:31.234Z,3.70
2022-10-28T22:41:04.969Z,4.07
2022-10-28T22:43:31.800Z,4.07
2022-10-28T22:45:59.465Z,3.77
2022-10-28T22:48:26.533Z,3.40
2022-10-28T22:50:53.606Z,4.47
2022-10-28T22:53:20.660Z,3.53
2022-10-28T22:55:47.695Z,3.30
2022-10-28T22:58:16.048Z,3.77
2022-10-28T23:00:43.453Z,3.60
2022-10-28T23:03:10.404Z,4.13
2022-10-28T23:05:37.249Z,4.07
2022-10-28T23:08:04.315Z,3.87
2022-10-28T23:10:31.132Z,3.57
2022-10-28T23:12:58.748Z,4.00
2022-10-28T23:15:25.944Z,4.50
2022-10-28T23:17:53.293Z,3.40
2022-10-28T23:20:21.832Z,4.10
2022-10-28T23:22:48.811Z,3.40
2022-10-28T23:25:16.091Z,5.50
2022-10-28T23:27:43.998Z,3.00
2022-10-28T23:30:12.839Z,3.70
2022-10-28T23:32:40.061Z,3.50
2022-10-28T23:35:07.635Z,4.47
2022-10-28T23:37:34.378Z,3.30
2022-10-28T23:40:01.253Z,3.60
2022-10-28T23:42:28.424Z,3.73
2022-10-28T23:44:55.105Z,3.10
2022-10-28T23:47:21.809Z,3.43
2022-10-28T23:49:48.543Z,3.97
2022-10-28T23:52:15.343Z,3.53
2022-10-28T23:54:42.012Z,3.20
2022-10-28T23:57:08.747Z,2.97
2022-10-28T23:59:35.408Z,4.23
